LFLB/CMF METAR and TAF weather

Enter ICAO airport designator
Station Type Date Time Source
LFLB METAR 2019/02/20 17:00 UTC NOAA

LFLB 201700Z AUTO VRB01KT CAVOK 08/01 Q1024 NOSIG


Station Type Date Time Source
LFLB Decoded METAR 2019/02/20 17:00 UTC NOAA

Chambery / Aix-Les-Bains, France (LFLB) 45-39N 005-53E 239M
Feb 20, 2019 - 12:00 PM EST / 2019.02.20 1700 UTC
Wind: Variable at 1 MPH (1 KT):0
Visibility: greater than 7 mile(s):0
Temperature: 46 F (8 C)
Dew Point: 33 F (1 C)
Relative Humidity: 61%
Pressure (altimeter): 30.24 in. Hg (1024 hPa)
ob: LFLB 201700Z AUTO VRB01KT CAVOK 08/01 Q1024 NOSIG
cycle: 17

Station Type Date Time Source
LFLB TAF 2019/02/20 18:21 UTC NOAA

TAF LFLB 201700Z 2018/2118 VRB03KT CAVOK PROB40
TEMPO 2104/2108 2000 BCFG


Example: see airport list